Time;durP1;ratioP1;P1;durP2;ratioP2;P2;SDS_P1;SDS_P2;PMS_P1;PMS_P2;Temp;Humidity;BMP_temperature;BMP_pressure;BME280_temperature;BME280_humidity;BME280_pressure;Samples;Min_cycle;Max_cycle;Signal;HPM_P1;HPM_P2
2022/12/04 00:00:46;;;;;;;49.73;25.13;;;;;;;5.26;100.00;95544.66;5024052;28;20215;-76
2022/12/04 00:03:13;;;;;;;50.20;25.50;;;;;;;5.22;100.00;95534.84;5025427;28;20219;-82
2022/12/04 00:05:40;;;;;;;55.17;26.60;;;;;;;5.20;100.00;95536.75;5040786;28;20257;-83
2022/12/04 00:08:07;;;;;;;49.03;25.10;;;;;;;5.15;100.00;95524.38;5041673;28;20757;-83
2022/12/04 00:10:35;;;;;;;54.17;26.60;;;;;;;5.18;100.00;95542.09;5030183;28;20205;-85
2022/12/04 00:13:02;;;;;;;56.73;26.57;;;;;;;5.19;100.00;95543.72;5032695;28;20199;-84
2022/12/04 00:15:29;;;;;;;52.53;26.93;;;;;;;5.19;100.00;95543.72;5029926;28;20314;-84
2022/12/04 00:17:56;;;;;;;60.50;30.23;;;;;;;5.15;100.00;95532.09;5032408;28;20212;-83
2022/12/04 00:20:23;;;;;;;64.50;31.60;;;;;;;5.09;100.00;95549.03;5031131;28;20211;-84
2022/12/04 00:22:49;;;;;;;71.53;32.87;;;;;;;5.08;100.00;95549.16;5031688;28;20290;-82
2022/12/04 00:25:16;;;;;;;58.13;30.13;;;;;;;5.14;100.00;95557.06;5041445;28;20200;-84
2022/12/04 00:27:44;;;;;;;62.87;30.23;;;;;;;5.13;100.00;95552.09;5032178;28;20206;-82
2022/12/04 00:30:12;;;;;;;60.87;29.67;;;;;;;5.09;100.00;95550.78;5026664;28;20200;-84
2022/12/04 00:32:39;;;;;;;64.13;33.43;;;;;;;4.98;100.00;95546.78;5025064;28;20240;-83
2022/12/04 00:35:06;;;;;;;63.27;30.63;;;;;;;4.93;100.00;95549.03;5038135;28;20230;-83
2022/12/04 00:37:34;;;;;;;62.67;30.63;;;;;;;4.93;100.00;95553.38;5029924;28;20216;-84
2022/12/04 00:40:00;;;;;;;58.30;30.77;;;;;;;4.88;100.00;95558.19;5028267;28;20205;-78
2022/12/04 00:42:27;;;;;;;60.23;29.70;;;;;;;4.87;100.00;95549.69;5028336;28;20195;-77
2022/12/04 00:44:55;;;;;;;51.27;28.30;;;;;;;4.89;100.00;95557.22;5027911;28;20655;-77
2022/12/04 00:47:22;;;;;;;57.97;29.40;;;;;;;4.86;100.00;95552.41;5023343;28;20255;-76
2022/12/04 00:49:50;;;;;;;60.23;30.77;;;;;;;4.82;100.00;95546.75;5024607;28;20206;-77
2022/12/04 00:52:17;;;;;;;56.47;29.93;;;;;;;4.86;100.00;95553.22;5028182;28;20198;-77
2022/12/04 00:54:44;;;;;;;70.27;30.57;;;;;;;4.87;100.00;95559.97;5029301;28;20225;-77
2022/12/04 00:57:10;;;;;;;61.10;30.57;;;;;;;4.79;100.00;95557.38;5029495;28;20205;-78
2022/12/04 00:59:38;;;;;;;60.20;30.77;;;;;;;4.79;100.00;95554.81;5023447;28;20204;-76
2022/12/04 01:02:06;;;;;;;60.27;29.63;;;;;;;4.75;100.00;95560.44;5024412;28;20202;-77
2022/12/04 01:04:33;;;;;;;62.23;31.77;;;;;;;4.70;100.00;95552.41;5031979;28;20211;-78
2022/12/04 01:07:00;;;;;;;63.50;31.30;;;;;;;4.71;100.00;95551.41;5027418;28;20571;-80
2022/12/04 01:09:27;;;;;;;63.33;31.53;;;;;;;4.70;100.00;95555.78;5034075;28;20212;-83
2022/12/04 01:11:53;;;;;;;62.03;31.07;;;;;;;4.73;100.00;95555.47;5039944;28;20234;-83
2022/12/04 01:14:20;;;;;;;59.37;30.37;;;;;;;4.69;100.00;95549.00;5040976;28;20269;-82
2022/12/04 01:16:47;;;;;;;58.23;30.80;;;;;;;4.67;100.00;95558.66;5035464;28;20226;-83
2022/12/04 01:19:15;;;;;;;62.63;30.37;;;;;;;4.71;100.00;95561.72;5030088;28;20208;-77
2022/12/04 01:21:42;;;;;;;57.27;29.50;;;;;;;4.59;100.00;95550.91;5029431;28;20208;-78
2022/12/04 01:24:09;;;;;;;66.83;30.77;;;;;;;4.57;100.00;95543.38;5030986;28;20216;-77
2022/12/04 01:26:36;;;;;;;58.70;31.00;;;;;;;4.59;100.00;95544.00;5032528;28;20200;-82
2022/12/04 01:29:03;;;;;;;67.90;30.63;;;;;;;4.64;100.00;95537.59;5034785;28;20233;-84
2022/12/04 01:31:30;;;;;;;64.20;31.10;;;;;;;4.59;100.00;95545.78;5047810;28;20190;-82
2022/12/04 01:33:57;;;;;;;65.07;31.80;;;;;;;4.63;100.00;95539.34;5033916;28;20241;-82
2022/12/04 01:36:27;;;;;;;64.30;33.17;;;;;;;4.59;100.00;95546.56;5032695;28;20261;-82
2022/12/04 01:38:55;;;;;;;74.10;34.80;;;;;;;4.63;100.00;95544.50;5042364;28;20747;-84
2022/12/04 01:41:24;;;;;;;65.23;33.50;;;;;;;4.63;100.00;95553.97;5037083;28;20203;-82
2022/12/04 01:44:12;;;;;;;62.83;30.30;;;;;;;4.58;100.00;95539.84;5032193;28;20195;-75
2022/12/04 01:46:39;;;;;;;68.67;33.80;;;;;;;4.62;100.00;95545.44;5026010;28;20211;-76
2022/12/04 01:49:08;;;;;;;63.87;33.00;;;;;;;4.54;100.00;95538.53;5028193;28;20204;-77
2022/12/04 01:51:41;;;;;;;62.37;32.50;;;;;;;4.53;100.00;95536.13;5031127;28;20313;-78
2022/12/04 01:54:11;;;;;;;64.53;34.00;;;;;;;4.59;100.00;95527.75;5025511;28;20859;-83
2022/12/04 01:56:43;;;;;;;64.13;32.50;;;;;;;4.62;100.00;95531.81;5035766;28;20203;-83
2022/12/04 01:59:12;;;;;;;66.93;34.27;;;;;;;4.55;100.00;95529.06;5041019;28;20944;-82
2022/12/04 02:01:46;;;;;;;64.77;32.50;;;;;;;4.54;100.00;95535.97;5033994;28;20586;-82
2022/12/04 02:04:13;;;;;;;61.77;31.80;;;;;;;4.54;100.00;95527.44;5029551;28;20200;-76
2022/12/04 02:06:41;;;;;;;64.03;32.63;;;;;;;4.46;100.00;95533.38;5027353;28;20261;-78
2022/12/04 02:09:08;;;;;;;67.23;33.03;;;;;;;4.40;100.00;95523.72;5026868;28;20195;-76
2022/12/04 02:11:42;;;;;;;61.40;32.17;;;;;;;4.39;100.00;95536.72;5031597;28;20204;-76
2022/12/04 02:14:20;;;;;;;63.97;33.83;;;;;;;4.38;100.00;95528.22;5027010;28;20195;-76
2022/12/04 02:16:53;;;;;;;59.87;32.83;;;;;;;4.38;100.00;95528.22;5025815;28;20852;-77
2022/12/04 02:19:47;;;;;;;73.47;35.17;;;;;;;4.39;100.00;95518.72;5027917;28;20203;-76
2022/12/04 02:22:31;;;;;;;62.83;32.80;;;;;;;4.34;100.00;95510.69;5028757;28;20575;-75
2022/12/04 02:25:05;;;;;;;63.33;32.53;;;;;;;4.42;100.00;95519.22;5030509;28;20195;-76
2022/12/04 02:27:58;;;;;;;62.23;33.40;;;;;;;4.48;100.00;95525.50;5026386;28;20199;-76
2022/12/04 02:30:28;;;;;;;67.10;34.00;;;;;;;4.50;100.00;95511.50;5025197;28;20704;-76
2022/12/04 02:33:01;;;;;;;66.00;34.23;;;;;;;4.46;100.00;95514.56;5028184;28;20324;-76
2022/12/04 02:35:33;;;;;;;64.77;32.70;;;;;;;4.39;100.00;95516.94;5025738;28;20226;-76
2022/12/04 02:38:06;;;;;;;61.13;29.63;;;;;;;4.37;100.00;95521.47;5027781;28;20206;-75
2022/12/04 02:40:41;;;;;;;53.60;28.73;;;;;;;4.39;100.00;95521.28;5025832;28;20206;-75
2022/12/04 02:43:15;;;;;;;54.07;29.77;;;;;;;4.39;100.00;95513.56;5026556;28;20684;-75
2022/12/04 02:45:46;;;;;;;54.33;29.57;;;;;;;4.34;100.00;95515.81;5027520;28;20203;-75
2022/12/04 02:48:18;;;;;;;58.00;30.97;;;;;;;4.36;100.00;95509.56;5027202;28;20191;-75
2022/12/04 02:50:47;;;;;;;58.43;32.13;;;;;;;4.38;100.00;95514.56;5026904;28;20669;-76
2022/12/04 02:53:19;;;;;;;61.83;32.20;;;;;;;4.39;100.00;95516.94;5022234;28;20210;-75
2022/12/04 02:55:51;;;;;;;58.70;30.27;;;;;;;4.38;100.00;95511.97;5026482;28;20218;-76
2022/12/04 02:58:26;;;;;;;60.27;30.47;;;;;;;4.44;100.00;95513.91;5027544;28;20662;-76
2022/12/04 03:00:55;;;;;;;54.30;30.00;;;;;;;4.42;100.00;95515.81;5023033;28;20281;-75
2022/12/04 03:03:26;;;;;;;63.63;29.60;;;;;;;4.38;100.00;95517.13;5023056;28;20645;-75
2022/12/04 03:05:58;;;;;;;57.47;29.10;;;;;;;4.39;100.00;95516.16;5025525;28;20205;-84
2022/12/04 03:08:32;;;;;;;51.43;27.57;;;;;;;4.36;100.00;95506.97;5030107;28;20199;-83
2022/12/04 03:11:00;;;;;;;60.50;28.03;;;;;;;4.40;100.00;95504.91;5026199;28;20580;-83
2022/12/04 03:13:34;;;;;;;53.77;27.73;;;;;;;4.44;100.00;95506.19;5026564;28;20293;-82
2022/12/04 03:16:06;;;;;;;52.90;25.63;;;;;;;4.33;100.00;95504.72;5035953;28;20225;-82
2022/12/04 03:18:37;;;;;;;47.53;25.83;;;;;;;4.37;100.00;95507.78;5034812;28;20210;-82
2022/12/04 03:21:09;;;;;;;51.60;26.47;;;;;;;4.41;100.00;95509.09;5031330;28;20213;-82
2022/12/04 03:23:44;;;;;;;52.77;26.50;;;;;;;4.35;100.00;95500.25;5032315;28;20197;-84
2022/12/04 03:26:15;;;;;;;58.20;25.63;;;;;;;4.32;100.00;95507.47;5027911;28;20195;-82
2022/12/04 03:28:50;;;;;;;54.83;26.20;;;;;;;4.37;100.00;95503.44;5032426;28;20225;-83
2022/12/04 03:31:22;;;;;;;56.57;25.53;;;;;;;4.41;100.00;95493.66;5037832;28;20198;-84
2022/12/04 03:33:53;;;;;;;53.00;27.07;;;;;;;4.40;100.00;95505.72;5029337;28;20230;-84
2022/12/04 03:36:25;;;;;;;50.97;25.73;;;;;;;4.36;100.00;95494.13;5028696;28;20583;-83
2022/12/04 03:38:57;;;;;;;55.97;26.03;;;;;;;4.37;100.00;95500.88;5028336;28;20277;-78
2022/12/04 03:41:29;;;;;;;54.80;25.67;;;;;;;4.38;100.00;95504.25;5026239;28;20791;-77
2022/12/04 03:44:01;;;;;;;47.23;25.20;;;;;;;4.37;100.00;95503.44;5029360;28;20297;-77
2022/12/04 03:46:33;;;;;;;48.43;23.83;;;;;;;4.25;100.00;95491.03;5028070;28;20235;-77
2022/12/04 03:49:12;;;;;;;49.33;23.40;;;;;;;4.25;100.00;95502.13;5026575;28;20210;-77
2022/12/04 03:51:43;;;;;;;53.30;25.27;;;;;;;4.22;100.00;95496.50;5026592;28;20280;-76
2022/12/04 03:54:14;;;;;;;51.67;25.60;;;;;;;4.24;100.00;95510.81;5025208;28;20190;-77
2022/12/04 03:56:47;;;;;;;46.03;23.20;;;;;;;4.26;100.00;95488.31;5027301;28;20286;-75
2022/12/04 03:59:20;;;;;;;49.73;25.33;;;;;;;4.28;100.00;95499.25;5025523;28;20233;-77
2022/12/04 04:01:51;;;;;;;51.17;24.47;;;;;;;4.32;100.00;95495.41;5027362;28;20198;-76
2022/12/04 04:04:21;;;;;;;45.80;24.47;;;;;;;4.21;100.00;95485.44;5023494;28;20194;-77
2022/12/04 04:06:52;;;;;;;46.73;23.33;;;;;;;4.24;100.00;95495.38;5025691;28;20664;-75
2022/12/04 04:09:24;;;;;;;45.30;23.30;;;;;;;4.26;100.00;95493.47;5024633;28;21582;-76
2022/12/04 04:11:58;;;;;;;47.43;23.80;;;;;;;4.29;100.00;95494.91;5029353;28;20200;-76
2022/12/04 04:25:47;;;;;;;40.03;20.97;;;;;;;4.14;100.00;95481.88;5026031;28;20217;-77
2022/12/04 04:28:28;;;;;;;41.07;21.77;;;;;;;4.30;100.00;95496.53;5030015;28;21231;-82
2022/12/04 04:31:05;;;;;;;44.30;22.63;;;;;;;4.23;100.00;95503.25;5035609;28;20225;-83
2022/12/04 04:33:36;;;;;;;42.07;22.37;;;;;;;4.22;100.00;95511.94;5032662;28;20234;-83
2022/12/04 04:36:12;;;;;;;33.80;18.20;;;;;;;4.21;100.00;95513.72;5021967;28;20198;-77
2022/12/04 04:38:45;;;;;;;41.00;21.60;;;;;;;4.22;100.00;95504.22;5026871;28;20202;-77
2022/12/04 04:41:19;;;;;;;38.00;21.57;;;;;;;4.19;100.00;95491.66;5030044;28;20204;-77
2022/12/04 04:43:57;;;;;;;30.43;17.10;;;;;;;4.18;100.00;95483.16;5031754;28;20203;-76
2022/12/04 04:46:29;;;;;;;23.10;13.63;;;;;;;4.17;100.00;95480.75;5031279;28;20198;-78
2022/12/04 04:49:01;;;;;;;15.57;9.17;;;;;;;4.31;100.00;95501.50;5032257;28;20206;-82
2022/12/04 04:51:30;;;;;;;15.33;7.83;;;;;;;4.40;100.00;95497.19;5037963;28;20209;-82
2022/12/04 04:53:59;;;;;;;9.63;6.80;;;;;;;4.50;100.00;95508.91;5037259;28;20217;-82
2022/12/04 04:56:26;;;;;;;10.10;5.80;;;;;;;4.64;100.00;95511.84;5033972;28;20250;-82
2022/12/04 04:58:53;;;;;;;15.87;8.97;;;;;;;4.67;100.00;95504.63;5033622;28;20203;-82
2022/12/04 05:01:22;;;;;;;27.23;14.93;;;;;;;4.70;100.00;95514.59;5033093;28;20195;-78
2022/12/04 05:03:50;;;;;;;25.13;14.30;;;;;;;4.63;100.00;95520.53;5030406;28;20195;-78
2022/12/04 05:06:17;;;;;;;22.67;12.70;;;;;;;4.62;100.00;95526.66;5027661;28;20207;-77
2022/12/04 05:08:45;;;;;;;22.33;13.33;;;;;;;4.66;100.00;95527.94;5031810;28;20200;-78
2022/12/04 05:11:13;;;;;;;27.83;16.43;;;;;;;4.68;100.00;95520.84;5033680;28;20285;-76
2022/12/04 05:13:41;;;;;;;23.70;14.43;;;;;;;4.68;100.00;95526.78;5028058;28;20214;-77
2022/12/04 05:16:11;;;;;;;30.60;15.50;;;;;;;4.69;100.00;95530.19;5028934;28;20211;-83
2022/12/04 05:18:38;;;;;;;27.07;15.73;;;;;;;4.65;100.00;95529.69;5047468;28;20199;-83
2022/12/04 05:21:07;;;;;;;35.07;16.10;;;;;;;4.67;100.00;95529.53;5040577;28;20203;-84
2022/12/04 05:23:34;;;;;;;28.53;15.57;;;;;;;4.65;100.00;95534.84;5031718;28;20235;-84
2022/12/04 05:26:01;;;;;;;28.07;15.10;;;;;;;4.60;100.00;95544.81;5035192;28;20268;-83
2022/12/04 05:28:28;;;;;;;21.53;13.03;;;;;;;4.57;100.00;95542.56;5039370;28;20320;-84
2022/12/04 05:30:55;;;;;;;21.93;13.80;;;;;;;4.52;100.00;95537.91;5034171;28;20212;-84
2022/12/04 05:33:22;;;;;;;22.87;13.20;;;;;;;4.55;100.00;95534.19;5036947;28;20272;-84
2022/12/04 05:35:57;;;;;;;26.63;12.63;;;;;;;4.58;100.00;95534.69;5038777;28;20223;-83
2022/12/04 05:38:25;;;;;;;26.60;13.90;;;;;;;4.58;100.00;95532.13;5035039;28;20202;-83
2022/12/04 05:40:52;;;;;;;27.00;14.23;;;;;;;4.66;100.00;95540.78;5038353;28;20204;-83
2022/12/04 05:43:19;;;;;;;28.77;14.83;;;;;;;4.60;100.00;95544.81;5036437;28;20214;-82
2022/12/04 05:45:46;;;;;;;22.73;12.93;;;;;;;4.47;100.00;95547.84;5035445;28;20199;-85
2022/12/04 05:48:13;;;;;;;31.57;15.97;;;;;;;4.51;100.00;95544.00;5031998;28;20191;-83
2022/12/04 05:50:39;;;;;;;26.80;15.30;;;;;;;4.43;100.00;95538.84;5033647;28;20194;-84
2022/12/04 05:53:06;;;;;;;31.30;15.27;;;;;;;4.51;100.00;95553.47;5031307;28;20210;-84
2022/12/04 05:55:35;;;;;;;28.30;16.77;;;;;;;4.43;100.00;95545.75;5030400;28;20224;-82
2022/12/04 05:58:01;;;;;;;32.20;17.57;;;;;;;4.50;100.00;95557.81;5033073;28;20191;-80
2022/12/04 06:00:28;;;;;;;33.83;17.00;;;;;;;4.45;100.00;95548.97;5040393;28;20222;-82
2022/12/04 06:02:55;;;;;;;29.30;16.80;;;;;;;4.54;100.00;95555.75;5035276;28;20202;-83
2022/12/04 06:05:22;;;;;;;35.00;18.27;;;;;;;4.54;100.00;95543.69;5036954;28;20207;-81
2022/12/04 06:07:49;;;;;;;33.57;17.97;;;;;;;4.55;100.00;95557.38;5036514;28;20803;-83
2022/12/04 06:10:15;;;;;;;31.73;17.77;;;;;;;4.58;100.00;95551.91;5043973;28;20203;-82
2022/12/04 06:12:44;;;;;;;31.87;17.60;;;;;;;4.59;100.00;95550.91;5034104;28;20205;-82
2022/12/04 06:15:11;;;;;;;31.07;17.43;;;;;;;4.60;100.00;95555.09;5042885;28;20221;-81
2022/12/04 06:17:38;;;;;;;36.57;18.30;;;;;;;4.58;100.00;95560.44;5034110;28;20222;-82
2022/12/04 06:20:06;;;;;;;38.70;19.03;;;;;;;4.62;100.00;95555.75;5031550;28;20210;-83
2022/12/04 06:22:33;;;;;;;30.77;17.23;;;;;;;4.68;100.00;95551.72;5026561;28;20202;-83
2022/12/04 06:24:59;;;;;;;36.10;18.73;;;;;;;4.74;100.00;95557.06;5038705;28;20751;-82
2022/12/04 06:27:26;;;;;;;32.43;18.70;;;;;;;4.68;100.00;95552.53;5033557;28;20211;-83
2022/12/04 06:29:54;;;;;;;63.90;35.00;;;;;;;4.72;100.00;95546.13;5037505;28;21495;-82
2022/12/04 06:32:21;;;;;;;63.50;41.67;;;;;;;4.66;100.00;95556.25;5040129;28;20247;-82
2022/12/04 06:34:51;;;;;;;50.33;32.57;;;;;;;4.48;100.00;95548.66;5036138;28;20212;-82
2022/12/04 06:37:18;;;;;;;48.97;27.43;;;;;;;4.58;100.00;95554.47;5037422;28;20228;-84
2022/12/04 06:39:45;;;;;;;43.47;27.10;;;;;;;4.59;100.00;95561.22;5036933;28;20205;-82
2022/12/04 06:42:11;;;;;;;42.40;27.40;;;;;;;4.69;100.00;95563.66;5037171;28;20206;-84
2022/12/04 06:44:39;;;;;;;56.70;35.37;;;;;;;4.78;100.00;95576.38;5038427;28;20215;-82
2022/12/04 06:47:08;;;;;;;43.00;26.97;;;;;;;4.86;100.00;95560.13;5037166;28;20199;-84
2022/12/04 06:49:35;;;;;;;53.00;33.47;;;;;;;4.97;100.00;95568.34;5031726;28;20200;-77
2022/12/04 06:52:02;;;;;;;57.03;36.30;;;;;;;5.06;100.00;95566.56;5026487;28;20208;-76
2022/12/04 06:54:28;;;;;;;58.67;36.30;;;;;;;5.19;100.00;95573.81;5026816;28;20602;-76
2022/12/04 06:56:55;;;;;;;49.47;29.50;;;;;;;5.26;100.00;95569.59;5024859;28;20236;-77
2022/12/04 06:59:22;;;;;;;27.77;18.43;;;;;;;5.31;100.00;95557.84;5027847;28;20218;-77
2022/12/04 07:01:49;;;;;;;23.70;13.90;;;;;;;5.39;100.00;95551.88;5027651;28;20215;-76
2022/12/04 07:04:17;;;;;;;17.37;10.13;;;;;;;5.47;100.00;95560.41;5026313;28;20202;-75
2022/12/04 07:06:44;;;;;;;16.23;9.73;;;;;;;5.56;100.00;95558.63;5028496;28;20671;-76
2022/12/04 07:09:13;;;;;;;14.03;8.57;;;;;;;5.65;100.00;95557.63;5029979;28;20295;-77
2022/12/04 07:11:41;;;;;;;13.90;8.63;;;;;;;5.70;100.00;95557.94;5028821;28;20211;-76
2022/12/04 07:14:08;;;;;;;13.77;8.83;;;;;;;5.82;100.00;95558.38;5025121;28;20203;-78
2022/12/04 07:16:36;;;;;;;14.50;9.07;;;;;;;5.85;100.00;95552.91;5025019;28;20274;-75
2022/12/04 07:19:03;;;;;;;16.13;9.27;;;;;;;5.98;100.00;95555.78;5022950;28;20602;-77
2022/12/04 07:21:33;;;;;;;14.87;8.70;;;;;;;6.06;100.00;95561.69;5028136;28;20209;-76
2022/12/04 07:24:01;;;;;;;12.73;8.23;;;;;;;6.23;100.00;95565.03;5024899;28;20193;-77
2022/12/04 07:26:29;;;;;;;13.23;8.50;;;;;;;6.35;100.00;95570.63;5024978;28;20202;-78
2022/12/04 07:28:57;;;;;;;13.17;8.20;;;;;;;6.47;100.00;95577.00;5026361;28;20213;-77
2022/12/04 07:31:26;;;;;;;13.27;7.87;;;;;;;6.55;100.00;95585.50;5028435;28;20213;-77
2022/12/04 07:33:54;;;;;;;12.97;7.53;;;;;;;6.67;100.00;95584.16;5025814;28;20230;-78
2022/12/04 07:36:22;;;;;;;12.63;7.57;;;;;;;6.74;100.00;95569.59;5026474;28;20610;-83
2022/12/04 07:38:51;;;;;;;14.03;8.33;;;;;;;6.73;100.00;95562.81;5033603;28;20213;-82
2022/12/04 07:41:26;;;;;;;15.57;8.47;;;;;;;6.72;100.00;95571.50;5040604;28;20236;-82
2022/12/04 07:43:54;;;;;;;12.57;7.80;;;;;;;6.72;100.00;95584.44;5031939;28;20194;-82
2022/12/04 07:46:23;;;;;;;10.90;7.50;;;;;;;6.76;100.00;95579.72;5031726;28;20252;-82
2022/12/04 07:48:50;;;;;;;12.70;7.60;;;;;;;6.77;100.00;95583.94;5035634;28;20217;-83
2022/12/04 07:51:19;;;;;;;11.90;7.60;;;;;;;6.81;100.00;95577.47;5037849;28;20213;-85
2022/12/04 07:53:45;;;;;;;14.70;7.73;;;;;;;6.85;100.00;95571.78;5034619;28;20210;-84
2022/12/04 07:56:15;;;;;;;12.87;7.43;;;;;;;7.00;100.00;95571.81;5032613;28;20708;-83
2022/12/04 07:58:42;;;;;;;13.23;7.50;;;;;;;7.02;100.00;95574.22;5038315;28;20225;-82
2022/12/04 08:01:11;;;;;;;11.47;7.10;;;;;;;7.06;100.00;95562.56;5039551;28;20202;-83
2022/12/04 08:03:37;;;;;;;9.50;6.13;;;;;;;6.98;100.00;95560.88;5037504;28;20635;-84
2022/12/04 08:06:05;;;;;;;9.07;6.27;;;;;;;7.07;100.00;95580.47;5032710;28;20202;-84
2022/12/04 08:08:33;;;;;;;13.60;7.33;;;;;;;7.10;100.00;95585.31;5034915;28;20208;-83
2022/12/04 08:11:00;;;;;;;11.43;6.33;;;;;;;7.01;100.00;95576.03;5035324;28;20217;-83
2022/12/04 08:13:28;;;;;;;11.67;7.20;;;;;;;7.07;100.00;95564.19;5030692;28;20220;-84
2022/12/04 08:15:55;;;;;;;16.70;7.27;;;;;;;7.17;100.00;95573.31;5031271;28;20210;-83
2022/12/04 08:18:22;;;;;;;11.60;6.43;;;;;;;7.19;100.00;95570.53;5034594;28;20217;-77
2022/12/04 08:20:49;;;;;;;9.17;6.20;;;;;;;7.14;100.00;95560.72;5022897;28;20203;-77
2022/12/04 08:23:16;;;;;;;10.13;6.00;;;;;;;7.21;100.00;95566.81;5031435;28;20198;-79
2022/12/04 08:25:42;;;;;;;14.57;6.43;;;;;;;7.29;100.00;95561.56;5023826;28;20207;-78
2022/12/04 08:28:10;;;;;;;9.57;6.10;;;;;;;7.35;100.00;95567.81;5028514;28;20209;-78
2022/12/04 08:30:38;;;;;;;11.77;5.83;;;;;;;7.50;100.00;95576.41;5023303;28;20310;-77
2022/12/04 08:33:05;;;;;;;9.40;6.00;;;;;;;7.61;100.00;95583.75;5023872;28;20222;-77
2022/12/04 08:35:32;;;;;;;9.90;5.43;;;;;;;7.68;100.00;95576.88;5019592;28;20598;-77
2022/12/04 08:37:59;;;;;;;12.17;6.30;;;;;;;7.54;100.00;95575.06;5026570;28;20266;-77
2022/12/04 08:40:26;;;;;;;9.17;5.80;;;;;;;7.48;100.00;95556.88;5024982;28;20222;-77
2022/12/04 08:42:53;;;;;;;8.97;5.30;;;;;;;7.66;100.00;95572.84;5023034;28;20256;-78
2022/12/04 08:45:20;;;;;;;8.17;5.30;;;;;;;7.72;100.00;95570.38;5024768;28;20202;-77
2022/12/04 08:47:48;;;;;;;8.63;5.43;;;;;;;7.76;100.00;95563.84;5025219;28;20222;-78
2022/12/04 08:50:15;;;;;;;8.37;5.67;;;;;;;7.77;100.00;95568.06;5026858;28;20294;-77
2022/12/04 08:52:42;;;;;;;8.47;6.10;;;;;;;7.88;100.00;95575.38;5026291;28;20596;-76
2022/12/04 08:55:11;;;;;;;8.60;5.63;;;;;;;7.89;100.00;95583.94;5027444;28;20199;-77
2022/12/04 08:57:38;;;;;;;9.30;5.87;;;;;;;7.93;100.00;95577.44;5024003;28;20277;-76
2022/12/04 09:00:06;;;;;;;13.03;5.63;;;;;;;8.06;100.00;95569.84;5024662;28;20198;-77
2022/12/04 09:02:42;;;;;;;10.50;5.90;;;;;;;8.02;100.00;95557.44;5026983;28;20651;-77
2022/12/04 09:05:11;;;;;;;9.53;6.00;;;;;;;8.15;100.00;95568.75;5025815;28;20198;-76
2022/12/04 09:07:37;;;;;;;8.90;5.87;;;;;;;8.11;100.00;95557.16;5023690;28;20199;-76
2022/12/04 09:10:05;;;;;;;9.40;6.10;;;;;;;8.08;100.00;95554.13;5024896;28;20206;-74
2022/12/04 09:12:32;;;;;;;10.60;6.30;;;;;;;8.14;100.00;95546.44;5027283;28;20207;-77
2022/12/04 09:14:59;;;;;;;12.00;6.93;;;;;;;8.26;100.00;95546.78;5026045;28;20203;-77
2022/12/04 09:17:25;;;;;;;9.53;6.13;;;;;;;8.36;100.00;95558.50;5023205;28;20238;-76
2022/12/04 09:19:52;;;;;;;10.37;6.07;;;;;;;8.47;100.00;95567.56;5024432;28;20195;-77
2022/12/04 09:22:20;;;;;;;12.13;6.07;;;;;;;8.62;100.00;95550.22;5023674;28;20772;-76
2022/12/04 09:24:47;;;;;;;10.50;6.33;;;;;;;8.74;100.00;95533.22;5025824;28;20199;-76
2022/12/04 09:27:15;;;;;;;10.87;6.27;;;;;;;8.88;100.00;95531.53;5023595;28;20547;-74
2022/12/04 09:29:42;;;;;;;11.87;6.17;;;;;;;8.92;100.00;95536.16;5026141;28;20199;-75
2022/12/04 09:32:09;;;;;;;8.77;5.70;;;;;;;8.95;100.00;95528.00;5026371;28;20288;-74
2022/12/04 09:34:36;;;;;;;9.80;6.13;;;;;;;9.03;100.00;95530.47;5034079;28;20582;-76
2022/12/04 09:37:03;;;;;;;8.63;6.00;;;;;;;9.04;100.00;95531.25;5026599;28;20233;-76
2022/12/04 09:39:31;;;;;;;9.97;6.70;;;;;;;9.14;100.00;95531.75;5027714;28;20253;-76
2022/12/04 09:42:21;;;;;;;9.13;6.20;;;;;;;9.20;100.00;95527.63;5031828;28;20198;-76
2022/12/04 09:44:53;;;;;;;10.17;6.63;;;;;;;9.20;100.00;95514.66;5028301;28;20203;-74
2022/12/04 09:47:23;;;;;;;10.37;6.03;;;;;;;9.26;100.00;95508.72;5027645;28;20582;-75
2022/12/04 09:49:54;;;;;;;11.47;5.93;;;;;;;9.18;100.00;95507.03;5033658;28;20209;-76
2022/12/04 09:52:31;;;;;;;8.63;5.83;;;;;;;9.28;100.00;95507.53;5026588;28;20198;-80
2022/12/04 09:55:03;;;;;;;9.23;6.13;;;;;;;9.23;100.00;95496.13;5031361;28;20195;-79
2022/12/04 09:57:36;;;;;;;12.90;6.37;;;;;;;9.24;100.00;95508.88;5028214;28;20234;-77
2022/12/04 10:00:05;;;;;;;9.90;6.37;;;;;;;9.19;100.00;95500.06;5029249;28;20261;-78
2022/12/04 10:02:39;;;;;;;9.30;6.10;;;;;;;9.08;100.00;95489.25;5028845;28;21166;-77
2022/12/04 10:05:14;;;;;;;9.63;6.30;;;;;;;9.16;100.00;95490.06;5029430;28;20198;-79
2022/12/04 10:07:50;;;;;;;10.27;6.10;;;;;;;9.21;100.00;95479.94;5027672;28;20281;-78
2022/12/04 10:10:26;;;;;;;9.90;6.30;;;;;;;9.13;100.00;95484.28;5027521;28;20263;-80
2022/12/04 10:13:01;;;;;;;11.53;6.40;;;;;;;9.08;100.00;95472.88;5034789;28;20272;-79
2022/12/04 10:15:37;;;;;;;9.37;6.10;;;;;;;9.11;100.00;95465.53;5038632;28;20194;-78
2022/12/04 10:18:16;;;;;;;10.03;7.00;;;;;;;9.17;100.00;95457.97;5036076;28;20218;-79
2022/12/04 10:20:55;;;;;;;10.77;6.70;;;;;;;9.16;100.00;95454.56;5030141;28;20847;-78
2022/12/04 10:23:30;;;;;;;9.20;6.17;;;;;;;9.19;100.00;95464.56;5031610;28;20214;-79
2022/12/04 10:26:11;;;;;;;13.23;6.60;;;;;;;9.31;100.00;95452.69;5028055;28;20202;-79
2022/12/04 10:28:45;;;;;;;9.57;6.17;;;;;;;9.72;100.00;95452.72;5031126;28;20256;-79
2022/12/04 10:31:15;;;;;;;9.80;6.30;;;;;;;10.15;98.71;95455.91;5030017;28;20221;-80
2022/12/04 10:33:47;;;;;;;9.07;6.37;;;;;;;10.53;97.34;95453.63;5028338;28;20249;-81
2022/12/04 10:36:19;;;;;;;10.73;6.63;;;;;;;10.71;95.10;95452.03;5033178;28;20199;-80
2022/12/04 10:38:52;;;;;;;9.63;6.37;;;;;;;10.65;95.49;95454.59;5037820;28;21465;-80
2022/12/04 10:41:27;;;;;;;9.77;6.53;;;;;;;10.69;94.54;95442.81;5037933;28;20201;-79
2022/12/04 10:43:54;;;;;;;11.27;7.20;;;;;;;10.58;94.10;95433.03;5033246;28;20194;-77
2022/12/04 10:46:25;;;;;;;10.07;6.20;;;;;;;10.71;94.78;95438.22;5028270;28;20222;-76
2022/12/04 10:48:57;;;;;;;10.87;6.67;;;;;;;10.91;93.84;95440.84;5026181;28;20195;-78
2022/12/04 10:51:25;;;;;;;9.43;6.57;;;;;;;10.91;92.55;95438.25;5028059;28;20759;-77
2022/12/04 10:53:53;;;;;;;13.53;7.43;;;;;;;11.03;92.37;95445.22;5028092;28;20197;-77
2022/12/04 10:56:24;;;;;;;10.57;6.53;;;;;;;10.98;91.79;95447.63;5028850;28;20209;-77
2022/12/04 10:59:00;;;;;;;11.73;7.30;;;;;;;10.71;91.90;95449.41;5025770;28;20654;-77
2022/12/04 11:01:30;;;;;;;9.60;6.80;;;;;;;10.59;92.32;95435.41;5029430;28;20226;-77
2022/12/04 11:04:02;;;;;;;9.93;7.20;;;;;;;10.71;92.48;95446.81;5026894;28;20202;-77
2022/12/04 11:06:30;;;;;;;10.70;7.13;;;;;;;10.95;92.50;95445.44;5027300;28;20217;-77
2022/12/04 11:08:59;;;;;;;12.53;7.13;;;;;;;11.14;93.14;95433.44;5026344;28;20273;-77
2022/12/04 11:11:30;;;;;;;10.40;6.50;;;;;;;11.29;90.17;95447.00;5028159;28;20282;-77
2022/12/04 11:14:05;;;;;;;12.07;6.90;;;;;;;11.34;90.75;95442.78;5024188;28;20206;-77
2022/12/04 11:16:37;;;;;;;11.47;7.03;;;;;;;11.42;92.00;95435.78;5023126;28;20680;-78
2022/12/04 11:19:20;;;;;;;10.90;6.57;;;;;;;11.68;89.14;95430.50;5029385;28;20689;-77
2022/12/04 11:21:49;;;;;;;8.83;6.03;;;;;;;11.75;89.04;95446.94;5027310;28;20199;-78
2022/12/04 11:24:23;;;;;;;9.80;6.60;;;;;;;11.99;87.67;95440.25;5024014;28;20194;-77
2022/12/04 11:26:53;;;;;;;9.40;6.40;;;;;;;12.34;86.64;95418.03;5026482;28;20876;-79
2022/12/04 11:29:24;;;;;;;7.50;5.27;;;;;;;13.19;84.29;95429.66;5024934;28;20286;-77
2022/12/04 11:31:55;;;;;;;7.10;5.53;;;;;;;13.69;79.50;95441.63;5030021;28;20642;-76
2022/12/04 11:34:28;;;;;;;7.80;5.40;;;;;;;14.37;77.41;95431.00;5024511;28;20191;-76
2022/12/04 11:36:59;;;;;;;7.47;5.07;;;;;;;14.99;74.80;95440.13;5024645;28;20207;-78
2022/12/04 11:39:32;;;;;;;7.30;4.83;;;;;;;15.23;71.73;95447.00;5028634;28;20221;-77
2022/12/04 11:42:15;;;;;;;6.87;4.70;;;;;;;15.66;70.31;95449.28;5027181;28;20747;-78
2022/12/04 11:44:52;;;;;;;12.27;4.63;;;;;;;16.28;68.28;95447.66;5027028;28;20198;-77